Time;durP1;ratioP1;P1;durP2;ratioP2;P2;SDS_P1;SDS_P2;PMS_P1;PMS_P2;Temp;Humidity;BMP_temperature;BMP_pressure;BME280_temperature;BME280_humidity;BME280_pressure;Samples;Min_cycle;Max_cycle;Signal;HPM_P1;HPM_P2
2022/04/10 00:00:54;;;;;;;;;15.25;15.25;;;;;8.53;52.36;101463.50;5035713;28;45386;-50
2022/04/10 00:03:21;;;;;;;;;22.20;17.00;;;;;8.53;52.30;101462.63;5036984;28;46178;-50
2022/04/10 00:05:46;;;;;;;;;16.80;15.40;;;;;8.23;52.77;101407.75;5033003;28;45379;-49
2022/04/10 00:08:12;;;;;;;;;17.00;17.00;;;;;8.24;52.39;101410.31;5019520;28;45445;-50
2022/04/10 00:10:37;;;;;;;;;17.00;17.00;;;;;8.45;52.95;101458.03;4996297;28;45429;-48
2022/04/10 00:13:03;;;;;;;;;17.00;17.00;;;;;8.25;52.57;101419.34;5036608;28;45366;-48
2022/04/10 00:15:28;;;;;;;;;16.75;16.75;;;;;8.27;52.76;101414.53;5018468;28;45790;-49
2022/04/10 00:17:54;;;;;;;;;19.00;16.50;;;;;8.46;53.23;101451.53;5018805;28;45399;-49
2022/04/10 00:20:20;;;;;;;;;14.75;13.25;;;;;8.46;52.43;101447.94;5019200;28;45399;-49
2022/04/10 00:22:46;;;;;;;;;21.25;16.50;;;;;8.41;52.64;101438.41;5036347;28;46616;-48
2022/04/10 00:25:13;;;;;;;;;18.80;16.20;;;;;8.41;52.76;101443.88;5036472;28;45357;-46
2022/04/10 00:27:40;;;;;;;;;18.40;16.40;;;;;8.40;52.79;101439.41;5002308;28;45283;-50
2022/04/10 00:30:06;;;;;;;;;20.00;18.40;;;;;8.32;53.17;101425.78;5018570;28;45316;-49
2022/04/10 00:32:32;;;;;;;;;19.20;17.00;;;;;8.27;53.20;101426.34;5016248;28;45655;-47
2022/04/10 00:34:57;;;;;;;;;22.50;22.50;;;;;8.28;53.32;101433.50;4998180;28;45325;-50
2022/04/10 00:37:23;;;;;;;;;20.00;18.50;;;;;8.26;53.69;101435.56;5016607;28;45407;-49
2022/04/10 00:39:48;;;;;;;;;21.25;16.50;;;;;8.27;53.64;101445.47;4998728;28;45705;-49
2022/04/10 00:42:15;;;;;;;;;20.50;17.75;;;;;8.22;53.12;101450.63;5016140;28;45544;-48
2022/04/10 00:44:41;;;;;;;;;20.40;19.20;;;;;8.22;53.53;101436.13;5016359;28;45327;-47
2022/04/10 00:47:06;;;;;;;;;27.75;18.25;;;;;8.16;53.12;101439.56;5016156;28;45635;-47
2022/04/10 00:49:32;;;;;;;;;22.75;17.75;;;;;8.17;53.37;101439.38;5016637;28;45537;-48
2022/04/10 00:51:58;;;;;;;;;17.75;17.00;;;;;8.14;53.17;101445.22;5016046;28;45509;-51
2022/04/10 00:54:26;;;;;;;;;18.80;18.80;;;;;8.08;53.44;101446.78;4998248;28;45481;-48
2022/04/10 00:56:53;;;;;;;;;20.20;17.60;;;;;8.04;53.85;101447.28;5016080;28;45963;-48
2022/04/10 00:59:18;;;;;;;;;22.40;21.40;;;;;7.81;53.60;101418.88;5015801;28;45552;-49
2022/04/10 01:01:45;;;;;;;;;19.75;18.50;;;;;8.02;54.35;101446.63;4998340;28;46208;-50
2022/04/10 01:04:12;;;;;;;;;16.40;16.40;;;;;8.02;53.59;101447.50;4998360;28;45451;-50
2022/04/10 01:06:38;;;;;;;;;17.60;16.00;;;;;8.01;53.96;101443.06;5014659;28;45355;-48
2022/04/10 01:09:04;;;;;;;;;20.25;16.25;;;;;7.97;53.36;101444.44;4965744;28;45344;-47
2022/04/10 01:11:29;;;;;;;;;17.50;16.25;;;;;7.90;53.78;101435.25;5015521;28;46399;-52
2022/04/10 01:13:55;;;;;;;;;20.50;18.75;;;;;7.94;53.86;101444.78;5015839;28;45367;-47
2022/04/10 01:16:24;;;;;;;;;18.50;15.25;;;;;7.93;53.64;101443.06;4992912;28;45406;-50
2022/04/10 01:18:50;;;;;;;;;21.60;20.40;;;;;7.52;54.05;101371.16;5023132;28;46002;-49
2022/04/10 01:21:22;;;;;;;;;15.40;15.40;;;;;7.94;53.80;101440.19;4996633;28;47688;-49
2022/04/10 01:23:47;;;;;;;;;12.80;10.20;;;;;7.93;54.10;101443.94;5035468;28;45347;-47
2022/04/10 01:26:13;;;;;;;;;15.25;15.00;;;;;7.93;53.91;101451.28;5035360;28;45395;-48
2022/04/10 01:29:00;;;;;;;;;20.50;17.50;;;;;7.67;53.91;101408.66;5035604;28;45320;-47
2022/04/10 01:31:27;;;;;;;;;21.60;17.80;;;;;7.66;53.83;101405.09;4997406;28;47375;-48
2022/04/10 01:33:54;;;;;;;;;18.60;16.60;;;;;7.89;53.70;101441.75;5014103;28;45552;-47
2022/04/10 01:36:19;;;;;;;;;18.00;15.80;;;;;7.90;53.61;101440.72;4997725;28;45752;-47
2022/04/10 01:38:45;;;;;;;;;14.00;12.75;;;;;7.78;53.97;101427.41;4998047;28;45194;-48
2022/04/10 01:41:14;;;;;;;;;18.75;18.75;;;;;7.84;53.28;101448.59;4997210;28;46050;-48
2022/04/10 01:43:46;;;;;;;;;15.60;15.60;;;;;7.81;53.43;101437.16;5014118;28;45471;-48
2022/04/10 01:46:14;;;;;;;;;14.20;14.20;;;;;7.79;53.52;101441.94;5015395;28;45178;-48
2022/04/10 01:48:40;;;;;;;;;18.40;15.00;;;;;7.75;54.53;101443.31;4997628;28;45581;-47
2022/04/10 01:51:06;;;;;;;;;18.80;17.20;;;;;7.72;53.80;101437.19;4997464;28;45407;-47
2022/04/10 01:53:31;;;;;;;;;16.00;14.40;;;;;7.60;53.30;101430.41;5015050;28;45335;-47
2022/04/10 01:55:57;;;;;;;;;17.50;15.50;;;;;7.49;53.82;101426.16;5014988;28;45427;-50
2022/04/10 01:58:22;;;;;;;;;14.00;14.00;;;;;7.58;54.06;101432.47;5013590;28;45374;-47
2022/04/10 02:00:48;;;;;;;;;20.25;18.50;;;;;7.58;54.35;101424.25;5014902;28;46261;-50
2022/04/10 02:03:13;;;;;;;;;14.75;14.00;;;;;7.61;53.84;101429.38;5015538;28;45403;-47
2022/04/10 02:05:39;;;;;;;;;15.00;14.00;;;;;7.62;53.95;101422.88;5015333;28;45427;-59
2022/04/10 02:08:05;;;;;;;;;14.50;13.00;;;;;7.46;53.57;101396.44;5015751;28;45513;-49
2022/04/10 02:10:30;;;;;;;;;13.25;13.25;;;;;7.63;53.32;101430.03;5015127;28;45817;-47
2022/04/10 02:12:56;;;;;;;;;17.75;17.50;;;;;7.64;53.40;101428.16;5013641;28;45450;-48
2022/04/10 02:15:21;;;;;;;;;15.25;14.00;;;;;7.58;53.86;101421.53;5015134;28;45285;-52
2022/04/10 02:17:47;;;;;;;;;15.75;14.50;;;;;7.62;53.54;101424.75;5015389;28;45330;-48
2022/04/10 02:20:12;;;;;;;;;16.50;15.50;;;;;7.59;53.03;101429.53;5014106;28;45978;-46
2022/04/10 02:22:38;;;;;;;;;13.75;12.00;;;;;7.58;53.25;101430.56;5013678;28;45910;-48
2022/04/10 02:25:04;;;;;;;;;17.00;12.00;;;;;7.57;53.08;101428.00;5015059;28;45347;-50
2022/04/10 02:27:30;;;;;;;;;16.25;14.25;;;;;7.56;52.80;101426.28;5013619;28;45351;-48
2022/04/10 02:29:55;;;;;;;;;11.25;8.00;;;;;7.45;52.92;101420.19;5013745;28;47351;-50
2022/04/10 02:32:21;;;;;;;;;15.75;12.75;;;;;7.49;52.42;101422.56;5028082;28;45504;-48
2022/04/10 02:34:46;;;;;;;;;13.00;10.50;;;;;7.49;52.19;101431.63;5017085;28;45431;-47
2022/04/10 02:37:12;;;;;;;;;10.50;10.50;;;;;7.46;52.41;101427.34;5033587;28;46013;-49
2022/04/10 02:39:37;;;;;;;;;10.25;10.00;;;;;7.43;52.54;101424.97;5034798;28;46093;-49
2022/04/10 02:42:03;;;;;;;;;10.50;9.75;;;;;7.44;52.52;101437.63;5034604;28;45419;-47
2022/04/10 02:44:29;;;;;;;;;11.50;10.75;;;;;7.43;52.41;101433.16;5035015;28;45381;-48
2022/04/10 02:46:54;;;;;;;;;12.50;12.50;;;;;7.48;52.47;101437.25;5010509;28;45341;-48
2022/04/10 02:49:20;;;;;;;;;11.50;11.25;;;;;7.34;52.66;101417.81;5034129;28;45405;-48
2022/04/10 02:51:49;;;;;;;;;11.00;11.00;;;;;7.46;51.99;101431.94;5016919;28;45241;-47
2022/04/10 02:54:15;;;;;;;;;11.20;11.20;;;;;7.23;53.26;101397.19;5033695;28;45478;-48
2022/04/10 02:56:40;;;;;;;;;11.25;10.25;;;;;7.48;52.87;101426.31;5033213;28;45694;-47
2022/04/10 02:59:08;;;;;;;;;11.50;10.00;;;;;7.45;52.71;101433.84;5034450;28;46127;-48
2022/04/10 03:01:34;;;;;;;;;14.40;10.20;;;;;7.48;53.28;101439.97;4999492;28;45513;-51
2022/04/10 03:03:59;;;;;;;;;12.00;10.00;;;;;7.49;53.03;101436.22;5016513;28;45454;-50
2022/04/10 03:06:25;;;;;;;;;10.75;10.75;;;;;7.40;52.88;101428.06;5034536;28;45560;-50
2022/04/10 03:08:51;;;;;;;;;12.00;11.25;;;;;7.46;53.25;101430.09;5032776;28;46365;-49
2022/04/10 03:11:16;;;;;;;;;15.50;11.00;;;;;7.49;53.36;101430.75;5036375;28;45299;-47
2022/04/10 03:13:42;;;;;;;;;12.00;10.75;;;;;7.50;53.38;101440.66;5037324;28;45323;-48
2022/04/10 03:16:07;;;;;;;;;11.75;11.00;;;;;7.44;53.26;101429.41;5037700;28;45351;-46
2022/04/10 03:18:33;;;;;;;;;11.00;9.25;;;;;7.49;53.50;101439.81;5037346;28;47318;-51
2022/04/10 03:20:58;;;;;;;;;15.50;11.25;;;;;7.49;53.39;101433.50;5037282;28;45354;-52
2022/04/10 03:23:24;;;;;;;;;13.25;12.00;;;;;7.50;53.41;101435.19;5037669;28;45649;-48
2022/04/10 03:25:50;;;;;;;;;10.50;10.25;;;;;7.51;53.22;101445.09;5019436;28;45637;-47
2022/04/10 03:28:15;;;;;;;;;16.00;14.00;;;;;7.51;54.02;101448.69;5019665;28;46212;-49
2022/04/10 03:30:41;;;;;;;;;11.50;10.75;;;;;7.48;53.76;101443.59;5037225;28;45481;-46
2022/04/10 03:33:06;;;;;;;;;10.75;10.00;;;;;7.50;53.61;101443.38;5032452;28;45439;-48
2022/04/10 03:35:32;;;;;;;;;15.75;12.50;;;;;7.51;53.50;101445.09;5036067;28;45394;-48
2022/04/10 03:37:57;;;;;;;;;18.00;14.25;;;;;7.44;53.35;101437.63;5036865;28;45808;-48
2022/04/10 03:40:23;;;;;;;;;17.50;15.25;;;;;7.50;53.77;101443.38;5035870;28;45333;-50
2022/04/10 03:42:48;;;;;;;;;7.25;7.25;;;;;7.31;53.14;101413.56;5036881;28;45291;-47
2022/04/10 03:45:14;;;;;;;;;11.00;9.25;;;;;7.46;53.86;101445.63;5036078;28;45243;-47
2022/04/10 03:47:40;;;;;;;;;11.00;11.00;;;;;7.46;53.67;101445.63;5036737;28;46166;-48
2022/04/10 03:50:06;;;;;;;;;12.60;11.80;;;;;7.45;53.39;101447.50;5037253;28;45204;-47
2022/04/10 03:52:31;;;;;;;;;13.50;11.25;;;;;7.41;53.68;101451.59;5036649;28;45359;-46
2022/04/10 03:54:57;;;;;;;;;13.00;11.25;;;;;7.37;53.71;101436.56;5037167;28;45321;-48
2022/04/10 03:57:22;;;;;;;;;16.00;12.00;;;;;7.41;54.18;101440.69;5036638;28;45331;-46
2022/04/10 03:59:48;;;;;;;;;12.25;11.00;;;;;7.33;53.85;101436.06;5040590;28;45264;-50
2022/04/10 04:02:16;;;;;;;;;11.25;11.25;;;;;7.30;54.21;101439.16;5056926;28;45427;-49
2022/04/10 04:04:45;;;;;;;;;11.00;8.80;;;;;7.35;54.36;101451.47;5035733;28;45758;-48
2022/04/10 04:07:11;;;;;;;;;18.00;16.40;;;;;7.02;54.18;101395.88;5055432;28;46612;-47
2022/04/10 04:09:36;;;;;;;;;12.50;10.75;;;;;7.25;54.18;101429.81;5056162;28;45638;-47
2022/04/10 04:12:02;;;;;;;;;12.50;10.50;;;;;7.28;54.34;101443.09;5034140;28;45751;-48
2022/04/10 04:14:27;;;;;;;;;8.25;8.25;;;;;7.23;53.27;101440.88;5035994;28;45561;-49
2022/04/10 04:16:53;;;;;;;;;12.50;12.00;;;;;7.22;53.83;101431.00;5056459;28;46189;-49
2022/04/10 04:19:19;;;;;;;;;11.25;10.00;;;;;7.19;53.47;101434.91;5037506;28;45359;-50
2022/04/10 04:21:44;;;;;;;;;14.00;12.50;;;;;7.11;54.46;101429.47;5053702;28;45573;-48
2022/04/10 04:24:10;;;;;;;;;11.50;9.50;;;;;7.05;54.24;101431.00;5056605;28;45853;-51
2022/04/10 04:26:35;;;;;;;;;13.25;11.25;;;;;7.08;55.00;101435.25;5038561;28;47022;-48
2022/04/10 04:29:01;;;;;;;;;17.50;14.00;;;;;7.19;54.40;101447.72;5056511;28;45423;-48
2022/04/10 04:31:26;;;;;;;;;10.75;10.75;;;;;7.25;54.42;101457.09;5056658;28;45354;-49
2022/04/10 04:33:52;;;;;;;;;13.00;9.50;;;;;7.14;54.23;101450.09;5036968;28;45497;-48
2022/04/10 04:36:17;;;;;;;;;14.50;13.25;;;;;7.12;54.52;101443.97;5036052;28;45964;-51
2022/04/10 04:38:43;;;;;;;;;14.50;14.50;;;;;7.24;54.82;101458.97;5036364;28;45355;-48
2022/04/10 04:41:10;;;;;;;;;11.50;11.00;;;;;7.26;54.96;101456.91;5018629;28;45350;-47
2022/04/10 04:43:36;;;;;;;;;17.00;13.00;;;;;7.25;54.56;101451.66;5036155;28;45383;-50
2022/04/10 04:46:01;;;;;;;;;17.75;15.75;;;;;7.24;54.69;101469.03;5036210;28;46707;-47
2022/04/10 04:48:27;;;;;;;;;12.75;12.25;;;;;7.09;55.26;101468.88;5017799;28;45427;-47
2022/04/10 04:50:52;;;;;;;;;12.50;12.00;;;;;7.13;55.35;101468.38;5036405;28;45346;-47
2022/04/10 04:53:18;;;;;;;;;9.25;5.25;;;;;7.19;55.23;101480.47;5036247;28;45588;-48
2022/04/10 04:55:43;;;;;;;;;18.00;15.75;;;;;7.10;55.02;101481.50;5035814;28;46480;-50
2022/04/10 04:58:09;;;;;;;;;18.25;15.25;;;;;6.96;55.81;101486.63;5035623;28;45355;-48
2022/04/10 05:00:34;;;;;;;;;20.00;16.25;;;;;6.98;56.19;101486.47;5036228;28;45375;-47
2022/04/10 05:03:00;;;;;;;;;19.00;17.75;;;;;6.90;56.08;101488.13;5036055;28;45513;-53
2022/04/10 05:05:27;;;;;;;;;21.60;20.00;;;;;6.88;56.38;101486.63;5017814;28;45522;-49
2022/04/10 05:07:52;;;;;;;;;17.25;13.75;;;;;6.92;56.42;101490.69;5017922;28;45296;-51
2022/04/10 05:10:18;;;;;;;;;15.75;15.75;;;;;6.75;57.11;101455.22;5035767;28;45497;-48
2022/04/10 05:12:43;;;;;;;;;19.50;17.00;;;;;6.96;56.48;101483.03;5018087;28;45406;-50
2022/04/10 05:15:09;;;;;;;;;21.75;20.25;;;;;7.00;57.08;101487.97;5035594;28;46461;-49
2022/04/10 05:17:35;;;;;;;;;23.50;20.75;;;;;6.96;56.62;101491.22;5035574;28;45327;-50
2022/04/10 05:20:02;;;;;;;;;16.20;16.20;;;;;6.97;57.72;101474.69;5035592;28;45815;-48
2022/04/10 05:22:28;;;;;;;;;20.40;19.00;;;;;7.04;56.99;101481.16;5035740;28;45604;-49
2022/04/10 05:24:53;;;;;;;;;24.75;18.75;;;;;7.07;57.19;101482.69;5035404;28;46586;-49
2022/04/10 05:27:19;;;;;;;;;19.50;19.50;;;;;6.94;57.11;101457.78;5017605;28;45413;-48
2022/04/10 05:29:44;;;;;;;;;21.25;19.75;;;;;6.85;56.93;101437.81;5035405;28;45368;-47
2022/04/10 05:32:10;;;;;;;;;24.00;22.00;;;;;7.21;56.67;101491.22;5035081;28;45502;-51
2022/04/10 05:34:36;;;;;;;;;19.00;17.60;;;;;7.17;56.92;101491.56;5034656;28;46437;-48
2022/04/10 05:37:02;;;;;;;;;23.75;22.75;;;;;7.26;56.82;101497.03;5034089;28;45517;-47
2022/04/10 05:39:27;;;;;;;;;18.50;16.75;;;;;7.27;57.21;101501.47;5035372;28;45452;-47
2022/04/10 05:41:53;;;;;;;;;20.75;17.25;;;;;7.29;57.26;101505.72;5034282;28;45474;-47
2022/04/10 05:44:18;;;;;;;;;23.25;18.50;;;;;6.83;57.21;101426.25;5035186;28;45364;-47
2022/04/10 05:46:44;;;;;;;;;18.00;18.00;;;;;7.31;56.55;101511.88;5034011;28;45712;-48
2022/04/10 05:49:09;;;;;;;;;17.75;17.00;;;;;7.39;56.93;101516.47;5035392;28;45800;-48
2022/04/10 05:51:35;;;;;;;;;19.00;18.50;;;;;7.41;57.05;101522.63;5035724;28;45653;-48
2022/04/10 05:54:01;;;;;;;;;25.50;23.75;;;;;7.38;56.80;101516.66;5033635;28;48045;-46
2022/04/10 05:56:26;;;;;;;;;20.75;19.75;;;;;7.39;56.78;101515.63;5033668;28;45335;-46
2022/04/10 05:58:52;;;;;;;;;20.75;20.75;;;;;7.35;56.52;101515.09;5037767;28;45380;-49
2022/04/10 06:01:17;;;;;;;;;27.50;24.00;;;;;7.28;56.63;101505.91;5055466;28;45310;-48
2022/04/10 06:03:43;;;;;;;;;20.50;20.00;;;;;7.37;56.53;101525.88;5036960;28;46756;-49
2022/04/10 06:06:08;;;;;;;;;23.50;22.00;;;;;7.33;56.35;101526.19;5036948;28;45347;-50
2022/04/10 06:08:34;;;;;;;;;25.75;25.75;;;;;7.21;56.23;101504.88;5017863;28;45413;-47
2022/04/10 06:10:59;;;;;;;;;22.75;21.00;;;;;7.36;56.13;101518.72;5034010;28;45466;-49
2022/04/10 06:13:25;;;;;;;;;26.50;22.00;;;;;7.41;55.96;101529.94;5016816;28;46519;-48
2022/04/10 06:15:51;;;;;;;;;23.40;21.20;;;;;7.37;56.12;101523.97;5017714;28;46601;-47
2022/04/10 06:18:16;;;;;;;;;28.25;23.75;;;;;7.42;56.72;101531.69;5027155;28;45521;-47
2022/04/10 06:20:42;;;;;;;;;25.50;21.25;;;;;7.42;56.50;101529.78;5046407;28;45748;-48
2022/04/10 06:23:08;;;;;;;;;29.00;25.50;;;;;6.99;55.90;101449.94;5023954;28;46512;-48
2022/04/10 06:25:33;;;;;;;;;28.50;26.00;;;;;7.54;55.87;101535.78;5041151;28;45463;-49
2022/04/10 06:27:59;;;;;;;;;28.25;23.75;;;;;7.57;55.56;101538.16;5037462;28;45485;-49
2022/04/10 06:30:24;;;;;;;;;24.25;23.00;;;;;7.56;55.86;101535.56;5030815;28;45449;-53
2022/04/10 06:32:50;;;;;;;;;24.75;22.50;;;;;7.53;56.55;101531.31;5034544;28;46202;-51
2022/04/10 06:35:16;;;;;;;;;29.00;25.25;;;;;7.59;55.92;101529.78;5016599;28;45842;-47
2022/04/10 06:37:42;;;;;;;;;25.75;21.00;;;;;7.60;56.47;101532.31;5050655;28;45763;-49
2022/04/10 06:40:08;;;;;;;;;28.40;27.00;;;;;7.67;56.41;101529.75;5037386;28;45469;-47
2022/04/10 06:42:34;;;;;;;;;28.50;24.75;;;;;7.70;56.20;101534.03;5012590;28;46471;-48
2022/04/10 06:44:59;;;;;;;;;28.50;26.50;;;;;7.71;55.70;101536.59;5047983;28;45664;-47
2022/04/10 06:47:27;;;;;;;;;32.00;27.00;;;;;7.72;56.10;101530.09;5054332;28;45492;-54
2022/04/10 06:49:57;;;;;;;;;32.20;27.20;;;;;7.71;56.31;101522.94;5033746;28;45707;-49
2022/04/10 06:52:22;;;;;;;;;31.00;26.40;;;;;7.72;55.37;101524.63;5014551;28;45485;-48
2022/04/10 06:54:48;;;;;;;;;29.75;27.75;;;;;7.78;55.70;101527.72;5033622;28;45429;-49
2022/04/10 06:57:13;;;;;;;;;31.25;29.50;;;;;7.73;56.59;101529.06;5015870;28;45390;-50
2022/04/10 06:59:39;;;;;;;;;30.25;27.00;;;;;7.82;56.32;101529.03;5004664;28;45760;-49
2022/04/10 07:02:04;;;;;;;;;29.00;23.75;;;;;7.86;56.15;101530.41;5032175;28;46700;-52
2022/04/10 07:04:30;;;;;;;;;30.75;27.75;;;;;7.86;56.18;101531.25;5030981;28;46767;-49
2022/04/10 07:06:55;;;;;;;;;27.25;25.00;;;;;7.79;55.78;101523.94;5033529;28;45560;-52
2022/04/10 07:09:21;;;;;;;;;27.50;26.75;;;;;7.88;55.21;101532.97;5033453;28;45384;-53
2022/04/10 07:11:46;;;;;;;;;24.25;24.25;;;;;7.88;55.30;101533.81;5010449;28;46219;-49
2022/04/10 07:14:12;;;;;;;;;23.75;20.25;;;;;7.90;54.99;101534.47;5031974;28;45621;-49
2022/04/10 07:16:37;;;;;;;;;18.75;17.00;;;;;7.94;54.48;101530.38;5023227;28;45893;-49
2022/04/10 07:19:03;;;;;;;;;20.75;20.75;;;;;7.97;54.78;101527.31;5033243;28;45483;-51
2022/04/10 07:24:12;;;;;;;;;16.00;15.60;;;;;7.75;52.91;101487.03;5012596;28;45801;-49
2022/04/10 07:26:38;;;;;;;;;14.75;14.50;;;;;8.03;52.80;101523.03;5013287;28;45781;-49
2022/04/10 07:29:03;;;;;;;;;15.75;14.00;;;;;8.09;52.52;101527.78;5031122;28;46097;-48
2022/04/10 07:31:29;;;;;;;;;15.50;15.25;;;;;8.14;53.44;101527.25;5031588;28;48295;-52
2022/04/10 07:33:55;;;;;;;;;19.25;15.25;;;;;7.98;53.57;101498.94;5033609;28;46125;-53
2022/04/10 07:36:20;;;;;;;;;13.50;13.50;;;;;8.23;53.34;101531.63;5033300;28;45448;-50
2022/04/10 07:38:46;;;;;;;;;10.50;10.25;;;;;8.25;52.96;101535.06;5031615;28;45416;-48
2022/04/10 07:41:11;;;;;;;;;18.50;15.50;;;;;8.27;53.47;101532.13;5029248;28;46414;-49
2022/04/10 07:43:37;;;;;;;;;12.25;11.00;;;;;8.32;52.45;101539.84;5032465;28;45377;-49
2022/04/10 07:48:46;;;;;;;;;8.60;8.60;;;;;8.41;51.23;101538.75;5033266;28;45461;-51
2022/04/10 07:51:12;;;;;;;;;11.75;10.75;;;;;8.39;50.70;101536.19;5032726;28;45850;-49
2022/04/10 07:53:37;;;;;;;;;18.00;11.00;;;;;8.46;51.00;101544.56;5031580;28;45542;-48
2022/04/10 07:56:03;;;;;;;;;13.00;11.25;;;;;8.48;51.60;101541.66;5030939;28;45319;-47
2022/04/10 07:58:28;;;;;;;;;8.25;7.50;;;;;8.45;50.44;101529.19;5033213;28;45368;-48
2022/04/10 08:00:54;;;;;;;;;10.50;10.00;;;;;8.53;51.79;101542.84;5030847;28;46830;-49
2022/04/10 08:03:20;;;;;;;;;11.00;10.75;;;;;8.60;50.20;101539.38;5033111;28;45669;-48
2022/04/10 08:05:45;;;;;;;;;10.25;7.75;;;;;8.66;50.68;101536.78;5030251;28;45501;-49
2022/04/10 08:08:11;;;;;;;;;6.75;6.75;;;;;8.31;49.96;101475.22;5031933;28;45671;-49
2022/04/10 08:10:37;;;;;;;;;3.40;3.40;;;;;8.47;47.09;101498.88;5031469;28;46534;-53
2022/04/10 08:13:03;;;;;;;;;6.60;5.40;;;;;8.71;49.04;101533.53;5031637;28;45806;-50
2022/04/10 08:15:29;;;;;;;;;10.75;9.50;;;;;8.76;49.23;101550.22;5020997;28;45785;-47
2022/04/10 08:17:56;;;;;;;;;10.00;8.00;;;;;8.78;49.60;101541.84;5051997;28;45939;-48
2022/04/10 08:20:22;;;;;;;;;12.00;10.80;;;;;8.82;48.58;101544.03;5052695;27;46485;-49
2022/04/10 08:22:48;;;;;;;;;11.00;10.60;;;;;8.76;49.17;101514.66;5052591;28;45485;-46
2022/04/10 08:25:16;;;;;;;;;9.00;8.00;;;;;8.82;48.89;101524.88;5085776;27;45397;-47
2022/04/10 08:27:41;;;;;;;;;12.00;11.00;;;;;8.90;48.64;101537.66;5051682;28;45666;-46
2022/04/10 08:30:10;;;;;;;;;5.00;4.00;;;;;8.93;47.56;101537.28;5032471;28;46122;-50
2022/04/10 08:32:36;;;;;;;;;7.00;7.00;;;;;9.03;48.29;101536.22;5042949;28;45866;-48
2022/04/10 08:35:02;;;;;;;;;6.00;6.00;;;;;9.05;47.39;101535.00;5052766;28;45482;-48
2022/04/10 08:37:27;;;;;;;;;11.25;9.75;;;;;9.09;47.50;101547.28;5051197;28;45444;-48
2022/04/10 08:39:53;;;;;;;;;10.25;8.50;;;;;9.12;48.01;101537.84;5051234;28;45814;-48
2022/04/10 08:42:20;;;;;;;;;10.00;10.00;;;;;9.19;48.29;101547.03;5051041;28;45394;-50
2022/04/10 08:44:45;;;;;;;;;8.00;8.00;;;;;8.99;47.47;101502.88;5051203;28;46103;-50
2022/04/10 08:47:11;;;;;;;;;8.50;7.25;;;;;9.23;47.88;101544.78;5051514;28;45688;-48
2022/04/10 08:49:37;;;;;;;;;12.60;10.20;;;;;9.12;47.60;101515.09;5050881;28;46187;-48
2022/04/10 08:52:03;;;;;;;;;8.75;6.25;;;;;9.33;47.09;101539.91;5034035;28;45835;-48
2022/04/10 08:54:28;;;;;;;;;6.25;6.25;;;;;9.42;46.82;101545.31;5051119;28;45455;-48
2022/04/10 08:56:57;;;;;;;;;7.25;6.50;;;;;9.34;46.72;101519.69;5085213;27;46054;-49
2022/04/10 08:59:22;;;;;;;;;11.40;10.60;;;;;9.53;47.48;101533.06;5051705;28;45813;-48
2022/04/10 09:01:52;;;;;;;;;9.50;9.50;;;;;9.45;47.62;101498.38;5033621;28;45452;-52
2022/04/10 09:04:18;;;;;;;;;16.00;13.80;;;;;9.76;47.62;101541.22;5034154;28;45819;-49
2022/04/10 09:06:58;;;;;;;;;14.25;12.00;;;;;9.80;47.84;101538.97;5050556;28;45617;-47
2022/04/10 09:09:24;;;;;;;;;14.00;11.00;;;;;9.84;47.37;101532.94;5033869;28;46671;-50
2022/04/10 09:11:52;;;;;;;;;12.25;10.00;;;;;9.89;46.21;101540.59;5028528;28;45447;-48
2022/04/10 09:14:27;;;;;;;;;14.00;11.00;;;;;9.94;47.65;101545.50;5013866;28;45511;-48
2022/04/10 09:17:12;;;;;;;;;11.40;8.40;;;;;9.96;46.96;101549.75;5019745;28;45723;-50
2022/04/10 09:19:50;;;;;;;;;8.80;8.40;;;;;10.02;47.04;101545.41;5051445;28;45450;-51
2022/04/10 09:22:24;;;;;;;;;6.20;6.20;;;;;10.09;47.23;101537.28;5051178;28;45382;-50
2022/04/10 09:25:12;;;;;;;;;8.80;8.80;;;;;10.16;46.35;101538.22;5010473;28;45775;-54
2022/04/10 09:27:40;;;;;;;;;7.60;6.60;;;;;10.17;46.23;101527.06;5010700;28;45622;-55
2022/04/10 09:30:07;;;;;;;;;5.60;5.60;;;;;10.14;45.10;101521.97;4991273;28;45664;-51
2022/04/10 09:32:46;;;;;;;;;4.00;4.00;;;;;10.08;45.54;101528.19;5019087;28;45544;-49
2022/04/10 09:35:16;;;;;;;;;5.80;5.20;;;;;10.19;44.99;101540.59;5032706;28;45469;-52
2022/04/10 09:37:54;;;;;;;;;5.60;5.60;;;;;10.20;45.78;101522.25;5029969;28;45826;-51
2022/04/10 09:40:32;;;;;;;;;4.40;4.40;;;;;10.28;44.83;101539.47;5030337;28;45776;-52
2022/04/10 09:43:10;;;;;;;;;8.60;6.80;;;;;10.34;45.59;101537.00;5045313;28;45412;-48
2022/04/10 09:45:39;;;;;;;;;6.20;6.20;;;;;10.25;45.38;101506.91;4996218;28;46965;-51
2022/04/10 09:48:24;;;;;;;;;5.80;5.80;;;;;10.35;45.64;101511.25;5014974;28;45802;-49
2022/04/10 09:50:52;;;;;;;;;8.00;7.20;;;;;10.53;44.81;101532.84;5030785;28;45837;-49
2022/04/10 09:53:18;;;;;;;;;8.00;6.20;;;;;10.57;44.22;101526.75;5045511;28;45554;-55
2022/04/10 09:55:43;;;;;;;;;6.00;4.60;;;;;10.71;43.37;101530.53;5016023;28;45892;-48
2022/04/10 09:58:13;;;;;;;;;8.50;6.00;;;;;10.78;44.62;101530.56;5048038;28;45287;-54
2022/04/10 10:00:45;;;;;;;;;9.20;8.00;;;;;10.83;43.16;101538.22;5043961;28;46459;-48
2022/04/10 10:03:10;;;;;;;;;4.80;4.80;;;;;10.91;44.05;101535.38;5049629;28;45544;-51
2022/04/10 10:05:36;;;;;;;;;6.00;3.50;;;;;11.00;43.21;101518.78;5050316;28;45787;-52
2022/04/10 10:08:03;;;;;;;;;7.00;6.00;;;;;11.03;43.73;101516.47;5050275;28;45686;-51
2022/04/10 10:10:29;;;;;;;;;8.20;7.80;;;;;10.90;42.62;101487.00;5051398;28;46499;-48
2022/04/10 10:12:56;;;;;;;;;6.60;6.60;;;;;10.95;43.23;101483.66;5047980;28;45450;-50
2022/04/10 10:15:22;;;;;;;;;8.20;5.80;;;;;11.19;42.60;101509.88;5032008;28;45412;-48
2022/04/10 10:17:47;;;;;;;;;11.75;8.50;;;;;11.17;42.81;101514.72;5037432;28;45497;-53
2022/04/10 10:20:13;;;;;;;;;8.50;6.25;;;;;11.19;42.41;101518.13;5052490;28;45933;-57
2022/04/10 10:22:39;;;;;;;;;6.75;6.75;;;;;11.28;43.24;101512.47;5054661;28;45379;-50
2022/04/10 10:25:12;;;;;;;;;8.00;8.00;;;;;11.23;41.06;101499.34;5055039;28;45399;-51
2022/04/10 10:28:03;;;;;;;;;6.00;6.00;;;;;11.29;42.89;101504.03;5039762;28;45754;-52
2022/04/10 10:30:35;;;;;;;;;8.60;8.60;;;;;11.22;43.12;101461.91;5056769;28;45562;-54
2022/04/10 10:33:18;;;;;;;;;13.20;12.00;;;;;11.48;43.08;101497.00;5056182;28;45500;-53
2022/04/10 10:35:44;;;;;;;;;12.80;9.60;;;;;11.55;43.13;101493.44;5037489;28;45427;-52
2022/04/10 10:38:27;;;;;;;;;12.20;8.40;;;;;11.59;42.13;101501.09;5036403;28;45450;-53
2022/04/10 10:41:08;;;;;;;;;8.40;8.00;;;;;11.32;41.38;101462.41;5036970;28;46152;-48
2022/04/10 10:43:33;;;;;;;;;10.00;10.00;;;;;11.59;41.83;101495.59;5054531;28;45386;-50
2022/04/10 10:45:59;;;;;;;;;9.00;9.00;;;;;11.65;41.85;101488.47;5057709;28;45472;-51
2022/04/10 10:48:30;;;;;;;;;5.50;5.50;;;;;11.74;41.61;101490.00;5056097;28;45453;-49
2022/04/10 10:51:01;;;;;;;;;7.00;4.20;;;;;11.79;39.66;101487.50;5072458;28;47349;-51
2022/04/10 10:53:59;;;;;;;;;6.00;6.00;;;;;11.92;40.42;101483.94;5056092;28;45477;-46
2022/04/10 10:56:32;;;;;;;;;7.00;7.00;;;;;12.01;39.77;101494.81;5029414;28;45404;-48
2022/04/10 10:59:23;;;;;;;;;8.20;5.00;;;;;12.06;39.71;101482.16;5016437;28;46229;-53
2022/04/10 11:02:03;;;;;;;;;4.00;4.00;;;;;12.15;39.83;101480.09;5035409;28;46420;-51
2022/04/10 11:04:39;;;;;;;;;4.80;4.80;;;;;12.23;40.05;101473.59;5036718;28;45786;-54
2022/04/10 11:07:19;;;;;;;;;4.80;4.00;;;;;12.25;39.66;101454.09;5026066;28;45478;-50
2022/04/10 11:09:55;;;;;;;;;4.80;4.80;;;;;12.44;39.59;101466.25;5017297;28;45811;-50
2022/04/10 11:12:22;;;;;;;;;4.20;4.20;;;;;12.37;38.67;101444.19;5025706;28;46114;-48
2022/04/10 11:14:50;;;;;;;;;9.20;7.60;;;;;12.01;37.85;101371.84;5036557;28;45379;-47
2022/04/10 11:17:34;;;;;;;;;4.80;4.80;;;;;12.70;38.67;101464.63;5025686;28;45533;-46
2022/04/10 11:20:07;;;;;;;;;9.00;8.60;;;;;12.67;38.09;101421.81;5024224;28;45491;-50
2022/04/10 11:22:58;;;;;;;;;7.80;7.00;;;;;13.06;37.72;101449.59;4997970;28;47447;-51
2022/04/10 11:25:27;;;;;;;;;6.40;5.00;;;;;13.20;37.37;101455.97;5005638;28;45605;-52